Time;durP1;ratioP1;P1;durP2;ratioP2;P2;SDS_P1;SDS_P2;PMS_P1;PMS_P2;Temp;Humidity;BMP_temperature;BMP_pressure;BME280_temperature;BME280_humidity;BME280_pressure;Samples;Min_cycle;Max_cycle;Signal;HPM_P1;HPM_P2
2023/10/05 00:02:21;;;;;;;8.40;3.90;;;;;;;9.21;82.36;97591.05;111289;1250;82698;-80
2023/10/05 00:04:51;;;;;;;5.60;3.50;;;;;;;9.21;82.57;97583.76;111381;1250;23737;-80
2023/10/05 00:07:23;;;;;;;;;;;;;;;9.22;82.56;97580.43;111337;1250;23758;-80
2023/10/05 00:09:56;;;;;;;6.40;3.70;;;;;;;9.33;82.78;97586.08;111442;1250;22504;-80
2023/10/05 00:12:30;;;;;;;6.60;3.40;;;;;;;9.36;82.60;97584.90;111296;1251;43580;-80
2023/10/05 00:15:13;;;;;;;6.10;3.40;;;;;;;9.43;82.76;97579.64;111336;1250;22518;-80
2023/10/05 00:17:42;;;;;;;5.30;3.40;;;;;;;9.55;82.69;97574.95;111338;1249;22633;-80
2023/10/05 00:20:21;;;;;;;6.00;3.40;;;;;;;9.63;82.63;97572.77;111337;1250;26043;-80
2023/10/05 00:22:52;;;;;;;7.20;4.00;;;;;;;9.68;82.55;97564.02;109664;1250;2183517;-80
2023/10/05 00:25:26;;;;;;;8.60;3.90;;;;;;;9.69;82.35;97561.48;111307;1250;22517;-80
2023/10/05 00:28:04;;;;;;;6.30;3.50;;;;;;;9.68;82.44;97555.50;111359;1250;22506;-80
2023/10/05 00:30:33;;;;;;;6.90;3.70;;;;;;;9.69;82.41;97557.67;111354;1250;22547;-80
2023/10/05 00:33:07;;;;;;;7.30;3.70;;;;;;;9.70;82.58;97557.48;111326;1250;54995;-80
2023/10/05 00:35:37;;;;;;;7.50;3.40;;;;;;;9.69;82.53;97563.08;111348;1251;22982;-79
2023/10/05 00:38:12;;;;;;;6.20;4.20;;;;;;;9.68;82.59;97565.15;111349;1250;22528;-80
2023/10/05 00:40:47;;;;;;;7.70;3.40;;;;;;;9.68;82.66;97560.70;111362;1243;24241;-80
2023/10/05 00:43:23;;;;;;;7.50;3.50;;;;;;;9.71;82.86;97565.27;110023;1244;1723688;-80
2023/10/05 00:45:56;;;;;;;7.80;3.80;;;;;;;9.75;82.77;97558.98;111345;1250;23119;-80
2023/10/05 00:48:34;;;;;;;7.10;3.60;;;;;;;9.76;82.64;97555.27;111328;1250;22522;-80
2023/10/05 00:51:23;;;;;;;5.30;3.10;;;;;;;9.75;82.59;97552.73;111655;1244;22527;-80
2023/10/05 00:53:58;;;;;;;5.60;3.70;;;;;;;9.74;82.66;97546.54;111894;1244;38875;-80
2023/10/05 00:56:33;;;;;;;7.20;3.90;;;;;;;9.73;82.56;97541.60;111931;1244;25411;-80
2023/10/05 00:59:06;;;;;;;8.40;3.80;;;;;;;9.73;82.62;97534.08;111913;1244;24191;-80
2023/10/05 01:01:58;;;;;;;5.90;3.90;;;;;;;9.74;82.56;97535.88;111915;1244;22545;-80
2023/10/05 01:04:37;;;;;;;5.50;3.90;;;;;;;9.73;82.55;97534.48;111930;1235;23813;-80
2023/10/05 01:07:17;;;;;;;6.10;3.40;;;;;;;9.72;82.59;97539.92;111932;1244;23173;-80
2023/10/05 01:09:56;;;;;;;8.20;3.60;;;;;;;9.70;82.61;97537.48;111942;1244;23830;-80
2023/10/05 01:12:36;;;;;;;5.60;3.10;;;;;;;9.76;82.71;97528.91;111562;1244;43231;-80
2023/10/05 01:15:15;;;;;;;5.20;2.70;;;;;;;9.81;82.61;97533.45;111592;1244;22508;-80
2023/10/05 01:17:43;;;;;;;;;;;;;;;9.81;82.51;97531.96;111901;1241;22523;-80
2023/10/05 01:20:22;;;;;;;7.30;3.60;;;;;;;9.84;82.42;97532.89;111604;1244;23035;-80
2023/10/05 01:22:50;;;;;;;;;;;;;;;9.81;82.18;97535.73;111571;1240;43323;-80
2023/10/05 01:25:19;;;;;;;6.00;3.00;;;;;;;9.79;82.24;97531.89;111604;1244;23854;-80
2023/10/05 01:27:50;;;;;;;4.20;2.50;;;;;;;9.77;82.28;97525.00;111855;1244;25548;-80
2023/10/05 01:30:20;;;;;;;5.50;3.10;;;;;;;9.77;82.14;97525.73;111929;1244;22509;-80
2023/10/05 01:32:49;;;;;;;6.50;3.10;;;;;;;9.76;82.08;97529.70;111913;1244;43190;-80
2023/10/05 01:35:18;;;;;;;7.50;3.50;;;;;;;9.72;82.06;97522.05;111917;1244;25488;-80
2023/10/05 01:37:53;;;;;;;7.60;3.50;;;;;;;9.69;81.94;97516.95;111917;1244;23681;-80
2023/10/05 01:40:30;;;;;;;6.10;3.50;;;;;;;9.64;82.07;97516.70;111880;1244;22643;-79
2023/10/05 01:43:01;;;;;;;6.80;3.40;;;;;;;9.58;82.11;97516.02;111834;1244;54398;-80
2023/10/05 01:45:33;;;;;;;5.70;3.60;;;;;;;9.52;82.15;97510.13;111925;1244;22617;-80
2023/10/05 01:48:12;;;;;;;7.50;4.00;;;;;;;9.47;82.16;97505.38;111952;1244;24963;-80
2023/10/05 01:50:50;;;;;;;7.20;3.80;;;;;;;9.40;82.24;97506.23;111900;1244;22521;-80
2023/10/05 01:53:20;;;;;;;6.10;3.30;;;;;;;9.35;82.43;97506.50;111865;1244;44495;-80
2023/10/05 01:55:53;;;;;;;5.80;3.60;;;;;;;9.32;82.54;97502.98;111901;1244;24329;-80
2023/10/05 01:58:36;;;;;;;6.00;3.00;;;;;;;9.30;82.58;97499.67;111581;1244;22499;-80
2023/10/05 02:01:10;;;;;;;5.00;3.00;;;;;;;9.27;82.73;97500.11;111580;1244;22673;-80
2023/10/05 02:03:39;;;;;;;7.60;4.00;;;;;;;9.23;82.81;97497.90;111859;1242;31947;-80
2023/10/05 02:06:11;;;;;;;6.00;3.10;;;;;;;9.19;82.86;97495.32;111924;1244;22494;-80
2023/10/05 02:08:41;;;;;;;8.10;3.30;;;;;;;9.18;83.00;97498.34;111939;1244;26428;-80
2023/10/05 02:11:23;;;;;;;6.20;3.30;;;;;;;9.16;83.10;97495.29;111916;1241;22505;-80
2023/10/05 02:14:03;;;;;;;5.90;3.30;;;;;;;9.14;83.11;97491.83;111842;1244;67037;-80
2023/10/05 02:16:35;;;;;;;6.60;2.90;;;;;;;9.12;83.17;97491.98;111900;1244;22565;-80
2023/10/05 02:19:08;;;;;;;;;;;;;;;9.10;83.24;97495.95;111918;1244;22586;-80
2023/10/05 02:21:41;;;;;;;7.00;3.00;;;;;;;9.07;83.35;97503.11;111927;1244;22499;-80
2023/10/05 02:24:18;;;;;;;4.60;3.00;;;;;;;9.05;83.41;97497.37;111838;1244;47781;-80
2023/10/05 02:27:09;;;;;;;6.00;3.20;;;;;;;9.01;83.52;97491.77;111569;1244;22541;-80
2023/10/05 02:29:42;;;;;;;5.90;3.40;;;;;;;8.97;83.68;97479.27;111600;1240;22528;-80
2023/10/05 02:32:14;;;;;;;6.90;3.60;;;;;;;8.94;83.83;97479.20;111899;1241;29956;-80
2023/10/05 02:34:59;;;;;;;6.30;3.80;;;;;;;8.90;83.96;97480.39;111479;1243;22533;-80
2023/10/05 02:37:47;;;;;;;5.40;3.20;;;;;;;8.90;84.23;97480.33;111585;1244;23019;-80
2023/10/05 02:40:25;;;;;;;7.40;3.40;;;;;;;8.88;84.39;97476.86;111566;1244;24278;-80
2023/10/05 02:43:07;;;;;;;6.50;3.30;;;;;;;8.87;84.42;97472.30;111349;1244;111000;-80
2023/10/05 02:45:38;;;;;;;7.40;3.40;;;;;;;8.84;84.48;97475.63;111930;1244;22718;-80
2023/10/05 02:48:11;;;;;;;5.20;3.20;;;;;;;8.82;84.50;97470.16;111914;1244;22718;-80
2023/10/05 02:50:51;;;;;;;6.50;3.20;;;;;;;8.82;84.57;97459.48;111913;1244;22516;-80
2023/10/05 02:53:23;;;;;;;7.00;3.70;;;;;;;8.80;84.59;97464.90;110547;1244;1750467;-80
2023/10/05 02:55:56;;;;;;;5.30;3.30;;;;;;;8.79;84.75;97467.22;111895;1244;22574;-80
2023/10/05 02:58:25;;;;;;;6.30;3.00;;;;;;;8.80;84.89;97465.23;111884;1244;26593;-80
2023/10/05 03:01:09;;;;;;;6.60;3.00;;;;;;;8.81;84.82;97468.40;111915;1244;22524;-80
2023/10/05 03:03:42;;;;;;;7.40;3.30;;;;;;;8.80;84.77;97466.86;111853;1244;43965;-80
2023/10/05 03:06:15;;;;;;;9.50;3.90;;;;;;;8.78;84.87;97467.20;111917;1244;22502;-80
2023/10/05 03:08:56;;;;;;;6.50;3.20;;;;;;;8.79;84.91;97469.55;111901;1244;22987;-80
2023/10/05 03:11:25;;;;;;;6.40;3.10;;;;;;;8.78;84.90;97468.16;111793;1244;22536;-80
2023/10/05 03:14:01;;;;;;;6.40;3.60;;;;;;;8.78;85.02;97470.12;111835;1228;50036;-80
2023/10/05 03:16:35;;;;;;;6.40;3.30;;;;;;;8.78;85.11;97466.94;111865;1244;22958;-80
2023/10/05 03:19:07;;;;;;;7.90;3.70;;;;;;;8.77;85.02;97461.44;111887;1244;22514;-80
2023/10/05 03:21:38;;;;;;;4.90;2.90;;;;;;;8.77;85.12;97463.44;111913;1244;23877;-79
2023/10/05 03:24:13;;;;;;;6.50;2.80;;;;;;;8.76;85.15;97464.02;111860;1234;38479;-80
2023/10/05 03:26:42;;;;;;;6.10;3.20;;;;;;;8.76;85.17;97469.25;111897;1244;22535;-80
2023/10/05 03:29:14;;;;;;;7.50;3.40;;;;;;;8.76;85.31;97469.57;111878;1240;22546;-80
2023/10/05 03:31:53;;;;;;;;;;;;;;;8.79;85.08;97475.73;111923;1244;22503;-80
2023/10/05 03:34:26;;;;;;;5.50;3.00;;;;;;;8.78;85.23;97468.90;110233;1244;2151892;-80
2023/10/05 03:36:55;;;;;;;6.60;3.10;;;;;;;8.78;85.30;97469.59;111837;1244;24153;-81
2023/10/05 03:39:25;;;;;;;8.10;3.40;;;;;;;8.77;85.30;97468.58;111883;1244;22506;-80
2023/10/05 03:42:05;;;;;;;6.60;3.00;;;;;;;8.78;85.35;97469.38;111902;1244;24276;-80
2023/10/05 03:44:40;;;;;;;7.20;3.40;;;;;;;8.78;85.21;97462.02;111853;1244;38909;-80
2023/10/05 03:47:12;;;;;;;4.70;2.90;;;;;;;8.81;85.36;97462.65;111923;1244;22549;-80
2023/10/05 03:49:56;;;;;;;5.60;3.30;;;;;;;8.82;85.19;97459.65;111894;1244;22547;-80
2023/10/05 03:52:31;;;;;;;5.70;3.10;;;;;;;8.86;85.19;97468.73;111811;1244;87375;-80
2023/10/05 03:55:09;;;;;;;6.40;2.90;;;;;;;8.86;85.13;97465.61;111868;1244;22510;-80
2023/10/05 03:57:38;;;;;;;5.60;2.90;;;;;;;8.85;85.06;97467.34;111872;1244;23158;-79
2023/10/05 04:00:23;;;;;;;5.50;3.00;;;;;;;8.78;85.08;97453.20;111810;1244;24286;-80
2023/10/05 04:02:54;;;;;;;6.10;2.90;;;;;;;8.81;85.12;97463.54;111847;1244;55549;-80
2023/10/05 04:05:24;;;;;;;5.40;3.20;;;;;;;8.83;85.34;97460.65;111879;1244;22761;-80
2023/10/05 04:07:55;;;;;;;4.70;2.90;;;;;;;8.83;85.23;97461.50;111889;1244;22550;-80
2023/10/05 04:10:45;;;;;;;7.00;3.70;;;;;;;8.82;85.09;97465.45;111862;1244;23972;-80
2023/10/05 04:13:14;;;;;;;5.50;2.90;;;;;;;8.81;85.02;97460.42;111762;1244;168103;-80
2023/10/05 04:15:50;;;;;;;5.30;3.00;;;;;;;8.81;85.10;97459.79;111869;1244;22517;-80
2023/10/05 04:18:22;;;;;;;6.80;2.80;;;;;;;8.83;85.21;97465.58;111847;1241;22537;-80
2023/10/05 04:20:58;;;;;;;5.40;2.80;;;;;;;8.85;85.06;97468.60;111877;1244;25360;-80
2023/10/05 04:23:28;;;;;;;6.10;3.00;;;;;;;8.89;85.13;97467.40;111809;1244;58997;-80
2023/10/05 04:25:56;;;;;;;5.50;3.20;;;;;;;8.92;85.01;97467.02;111898;1244;22521;-80
2023/10/05 04:28:35;;;;;;;5.30;2.70;;;;;;;8.92;84.90;97466.06;111871;1244;24930;-80
2023/10/05 04:31:10;;;;;;;8.20;3.30;;;;;;;8.93;84.90;97463.70;111894;1244;22507;-80
2023/10/05 04:33:42;;;;;;;6.60;2.70;;;;;;;8.96;84.90;97462.34;110365;1244;2004012;-80
2023/10/05 04:36:13;;;;;;;6.50;2.90;;;;;;;8.97;84.80;97462.78;111874;1244;23711;-80
2023/10/05 04:38:44;;;;;;;9.00;2.90;;;;;;;8.97;84.75;97464.31;111860;1244;22544;-80
2023/10/05 04:41:17;;;;;;;8.40;2.90;;;;;;;8.98;84.64;97463.00;111861;1244;22937;-81
2023/10/05 04:43:45;;;;;;;7.10;2.80;;;;;;;8.96;84.45;97464.04;111850;1244;46116;-80
2023/10/05 04:46:18;;;;;;;5.00;3.10;;;;;;;8.91;84.46;97462.25;111826;1244;25654;-80
2023/10/05 04:49:07;;;;;;;6.70;3.30;;;;;;;8.87;84.51;97462.61;111839;1244;22502;-80
2023/10/05 04:51:38;;;;;;;7.10;2.90;;;;;;;8.78;84.45;97458.70;111808;1244;22509;-80
2023/10/05 04:54:11;;;;;;;6.80;3.40;;;;;;;8.82;84.58;97465.45;107480;1244;5560684;-80
2023/10/05 04:56:53;;;;;;;6.80;3.20;;;;;;;8.81;84.52;97466.29;111866;1234;25440;-80
2023/10/05 04:59:36;;;;;;;6.10;3.00;;;;;;;8.77;84.57;97461.48;111895;1244;23858;-80
2023/10/05 05:05:31;;;;;;;6.30;3.10;;;;;;;8.72;84.50;97472.58;111824;1244;23941;-80
2023/10/05 05:08:02;;;;;;;5.50;3.00;;;;;;;8.70;84.67;97470.48;111869;1244;26534;-80
2023/10/05 05:10:31;;;;;;;7.90;3.20;;;;;;;8.68;84.76;97471.52;111858;1244;22624;-80
2023/10/05 05:13:00;;;;;;;5.80;3.50;;;;;;;8.62;84.82;97467.33;111779;1244;60954;-80
2023/10/05 05:15:35;;;;;;;7.40;3.70;;;;;;;8.65;84.79;97477.41;111830;1244;22516;-80
2023/10/05 05:18:05;;;;;;;8.40;4.10;;;;;;;8.62;84.78;97474.89;111857;1244;24175;-81
2023/10/05 05:20:34;;;;;;;7.50;3.30;;;;;;;8.62;85.00;97477.64;111805;1244;25271;-80
2023/10/05 05:23:11;;;;;;;4.80;2.60;;;;;;;8.66;85.26;97474.98;109725;1244;2639049;-80
2023/10/05 05:25:41;;;;;;;7.20;3.20;;;;;;;8.72;85.12;97466.88;111814;1244;22539;-80
2023/10/05 05:28:16;;;;;;;5.40;2.90;;;;;;;8.74;85.04;97468.39;111876;1244;22503;-81
2023/10/05 05:30:53;;;;;;;7.20;3.30;;;;;;;8.85;85.47;97471.10;111879;1244;25287;-80
2023/10/05 05:33:25;;;;;;;5.80;2.90;;;;;;;9.00;85.57;97472.77;111829;1244;38769;-81
2023/10/05 05:35:54;;;;;;;6.20;3.00;;;;;;;9.28;85.99;97467.22;111854;1244;22516;-81
2023/10/05 05:38:27;;;;;;;7.00;3.30;;;;;;;9.58;85.76;97462.38;111854;1244;24226;-80
2023/10/05 05:41:01;;;;;;;6.80;3.40;;;;;;;9.90;85.67;97457.84;111860;1244;26420;-80
2023/10/05 05:43:33;;;;;;;7.90;3.50;;;;;;;10.21;85.19;97453.80;111811;1244;42486;-80
2023/10/05 05:46:05;;;;;;;6.40;3.60;;;;;;;10.46;84.41;97446.97;111897;1244;23715;-80
2023/10/05 05:48:43;;;;;;;8.60;3.00;;;;;;;10.64;83.89;97438.70;111855;1244;22566;-80
2023/10/05 05:51:15;;;;;;;6.40;3.00;;;;;;;10.83;83.43;97436.08;111972;1244;22507;-80
2023/10/05 05:53:50;;;;;;;7.30;3.40;;;;;;;10.99;82.93;97433.38;111845;1231;52009;-80
2023/10/05 05:56:19;;;;;;;7.30;3.20;;;;;;;11.12;82.33;97422.11;112192;1243;23801;-80
2023/10/05 05:58:50;;;;;;;8.60;3.00;;;;;;;11.17;81.39;97419.37;111860;1243;22599;-79
2023/10/05 06:01:22;;;;;;;6.40;3.20;;;;;;;11.23;81.32;97415.82;112134;1243;22496;-80
2023/10/05 06:03:51;;;;;;;6.40;2.90;;;;;;;11.41;81.25;97412.25;110487;1243;2099841;-80
2023/10/05 06:06:22;;;;;;;9.30;3.10;;;;;;;11.53;80.48;97414.59;112124;1240;22649;-80
2023/10/05 06:08:54;;;;;;;7.80;3.40;;;;;;;11.60;79.80;97414.51;112122;1243;22536;-80
2023/10/05 06:11:30;;;;;;;8.10;3.30;;;;;;;11.71;79.59;97415.05;112127;1243;26429;-80
2023/10/05 06:14:03;;;;;;;6.30;3.30;;;;;;;11.77;78.60;97415.42;112064;1243;42764;-80
2023/10/05 06:16:39;;;;;;;5.20;3.00;;;;;;;11.89;78.46;97413.85;112136;1236;22605;-80
2023/10/05 06:19:11;;;;;;;6.20;3.00;;;;;;;12.00;78.12;97420.81;112135;1243;22683;-80
2023/10/05 06:21:45;;;;;;;8.00;3.60;;;;;;;12.16;77.51;97416.11;112123;1240;22519;-80
2023/10/05 06:24:14;;;;;;;4.90;2.90;;;;;;;12.32;77.32;97421.94;112084;1243;40878;-80
2023/10/05 06:26:45;;;;;;;7.30;3.70;;;;;;;12.48;76.46;97416.15;112150;1243;24713;-81
2023/10/05 06:29:16;;;;;;;7.20;2.80;;;;;;;12.50;76.22;97416.90;112120;1243;22539;-80
2023/10/05 06:31:44;;;;;;;6.50;3.30;;;;;;;12.60;75.69;97419.63;112123;1243;25427;-81
2023/10/05 06:34:14;;;;;;;6.20;3.00;;;;;;;12.68;75.19;97420.30;112118;1243;48154;-80
2023/10/05 06:36:43;;;;;;;7.80;3.40;;;;;;;12.82;75.08;97417.05;112109;1243;23825;-80
2023/10/05 06:39:19;;;;;;;6.60;3.70;;;;;;;12.97;74.39;97418.42;112098;1243;22509;-80
2023/10/05 06:41:48;;;;;;;6.00;3.50;;;;;;;13.03;73.97;97421.37;112133;1243;22514;-81
2023/10/05 06:44:25;;;;;;;5.40;2.80;;;;;;;13.16;73.62;97416.05;112070;1243;43794;-81
2023/10/05 06:46:55;;;;;;;5.80;3.00;;;;;;;13.29;73.34;97412.70;112126;1243;22502;-81
2023/10/05 06:49:23;;;;;;;8.10;3.70;;;;;;;13.45;72.84;97406.79;112133;1243;22512;-81
2023/10/05 06:51:52;;;;;;;6.70;3.60;;;;;;;13.60;72.61;97407.27;112033;1243;22492;-81
2023/10/05 06:54:20;;;;;;;5.70;3.10;;;;;;;13.57;71.49;97410.60;112093;1243;47836;-81
2023/10/05 06:56:49;;;;;;;6.30;3.30;;;;;;;13.53;71.76;97412.92;111994;1243;22520;-80
2023/10/05 06:59:20;;;;;;;5.90;3.00;;;;;;;13.55;71.36;97415.77;112114;1243;22502;-80
2023/10/05 07:01:54;;;;;;;7.40;3.80;;;;;;;13.50;71.04;97422.48;112108;1243;22624;-80
2023/10/05 07:04:28;;;;;;;6.80;3.60;;;;;;;13.45;71.25;97421.45;112064;1243;82805;-81
2023/10/05 07:06:56;;;;;;;6.50;3.20;;;;;;;13.43;70.85;97408.83;111868;1243;22602;-80
2023/10/05 07:09:26;;;;;;;9.50;4.20;;;;;;;13.41;70.87;97421.27;112093;1235;22470;-79
2023/10/05 07:11:58;;;;;;;10.00;3.70;;;;;;;13.33;70.45;97421.73;112117;1243;25270;-81
2023/10/05 07:14:29;;;;;;;7.40;3.90;;;;;;;13.28;70.62;97417.02;112089;1243;33906;-81
2023/10/05 07:16:59;;;;;;;9.00;4.30;;;;;;;13.40;70.98;97416.19;112100;1243;22580;-81
2023/10/05 07:19:28;;;;;;;8.50;4.40;;;;;;;13.65;70.81;97417.09;112107;1240;22579;-80
2023/10/05 07:21:58;;;;;;;8.80;3.70;;;;;;;13.79;70.34;97416.98;112113;1243;22517;-81
2023/10/05 07:24:29;;;;;;;7.00;4.00;;;;;;;13.86;69.96;97411.98;112064;1243;107481;-81
2023/10/05 07:26:58;;;;;;;9.00;4.70;;;;;;;13.87;69.96;97412.66;112078;1243;23763;-81
2023/10/05 07:29:28;;;;;;;7.60;4.10;;;;;;;13.99;70.12;97414.38;112100;1243;22517;-81
2023/10/05 07:31:57;;;;;;;7.70;3.80;;;;;;;14.11;69.73;97415.83;112145;1243;22527;-81
2023/10/05 07:34:28;;;;;;;8.20;3.90;;;;;;;14.21;69.81;97415.19;112089;1243;40965;-81
2023/10/05 07:36:57;;;;;;;6.30;3.70;;;;;;;14.28;69.36;97420.67;112138;1242;23986;-81
2023/10/05 07:39:29;;;;;;;9.30;4.10;;;;;;;14.28;69.26;97418.48;111942;1240;198731;-81
2023/10/05 07:42:00;;;;;;;8.00;3.60;;;;;;;14.26;69.20;97421.65;112124;1243;23219;-81
2023/10/05 07:44:29;;;;;;;8.70;4.10;;;;;;;14.33;69.31;97423.77;112061;1243;57805;-81
2023/10/05 07:47:01;;;;;;;7.50;4.10;;;;;;;14.45;69.13;97423.56;112022;1243;22612;-81
2023/10/05 07:49:34;;;;;;;6.70;3.60;;;;;;;14.62;69.09;97420.39;112104;1243;25418;-81
2023/10/05 07:52:07;;;;;;;6.70;3.30;;;;;;;14.72;68.81;97419.90;112165;1243;23311;-81
2023/10/05 07:54:38;;;;;;;7.90;3.40;;;;;;;14.69;68.45;97414.66;112087;1243;32078;-81
2023/10/05 07:57:09;;;;;;;8.00;4.40;;;;;;;14.72;68.40;97413.09;112128;1243;22685;-81
2023/10/05 07:59:42;;;;;;;6.10;3.60;;;;;;;14.80;68.40;97409.25;112189;1243;25215;-81
2023/10/05 08:02:14;;;;;;;7.80;3.60;;;;;;;14.98;68.66;97408.59;112109;1243;22559;-81
2023/10/05 08:04:44;;;;;;;7.50;3.60;;;;;;;15.16;68.51;97403.24;112044;1243;83039;-81
2023/10/05 08:07:15;;;;;;;8.40;3.50;;;;;;;15.34;68.62;97401.80;111905;1243;23957;-81
2023/10/05 08:09:46;;;;;;;7.80;3.50;;;;;;;15.45;68.07;97404.64;112119;1242;23517;-80
2023/10/05 08:12:15;;;;;;;7.50;3.90;;;;;;;15.56;68.06;97398.19;112103;1243;22633;-81
2023/10/05 08:14:46;;;;;;;5.60;3.30;;;;;;;15.67;68.00;97397.83;112054;1240;48151;-81
2023/10/05 08:17:17;;;;;;;7.30;4.10;;;;;;;15.58;67.50;97397.03;112116;1243;22479;-80
2023/10/05 08:19:46;;;;;;;9.20;3.50;;;;;;;15.49;67.65;97396.89;112147;1243;22551;-81
2023/10/05 08:22:16;;;;;;;8.10;3.70;;;;;;;15.57;67.87;97390.10;111902;1243;24249;-81
2023/10/05 08:24:45;;;;;;;6.30;3.00;;;;;;;15.56;67.01;97389.14;112049;1243;83731;-82
2023/10/05 08:27:20;;;;;;;8.90;3.20;;;;;;;15.48;66.32;97390.98;112087;1243;25253;-82
2023/10/05 08:29:49;;;;;;;7.60;3.10;;;;;;;15.34;65.60;97384.29;112108;1243;22514;-81
2023/10/05 08:32:25;;;;;;;6.40;2.80;;;;;;;15.15;65.30;97384.92;112132;1243;23463;-81
2023/10/05 08:34:53;;;;;;;7.70;3.20;;;;;;;15.11;65.47;97380.77;112110;1243;55201;-81
2023/10/05 08:37:23;;;;;;;6.20;2.90;;;;;;;15.22;65.61;97378.80;112122;1243;23893;-81
2023/10/05 08:39:55;;;;;;;6.30;2.90;;;;;;;15.36;65.59;97382.77;112123;1239;24307;-81
2023/10/05 08:42:46;;;;;;;4.30;2.30;;;;;;;15.38;64.75;97375.84;112066;1238;36808;-81
2023/10/05 08:45:23;;;;;;;8.50;3.20;;;;;;;15.38;64.54;97373.70;111897;1243;23894;-81
2023/10/05 08:47:55;;;;;;;7.10;3.30;;;;;;;15.45;64.31;97373.33;112142;1240;25658;-81
2023/10/05 08:50:24;;;;;;;5.40;2.30;;;;;;;15.61;64.71;97372.88;112095;1243;22540;-81
2023/10/05 08:52:54;;;;;;;7.10;3.40;;;;;;;15.75;64.40;97368.55;112093;1243;38086;-81
2023/10/05 08:55:26;;;;;;;5.20;2.80;;;;;;;15.93;64.53;97366.98;112095;1243;22508;-81
2023/10/05 08:57:55;;;;;;;8.00;2.90;;;;;;;15.93;63.37;97365.95;111907;1243;26655;-81
2023/10/05 09:00:38;;;;;;;6.10;2.60;;;;;;;15.75;62.84;97370.27;112126;1243;22488;-81
2023/10/05 09:03:28;;;;;;;6.30;3.00;;;;;;;15.67;63.50;97367.61;112061;1243;58071;-81
2023/10/05 09:08:53;;;;;;;4.80;2.70;;;;;;;15.80;62.47;97367.83;112077;1234;22494;-81
2023/10/05 09:11:31;;;;;;;5.00;2.80;;;;;;;15.90;62.72;97364.82;112073;1243;22651;-81
2023/10/05 09:16:55;;;;;;;6.90;2.70;;;;;;;16.35;63.27;97360.97;112107;1243;24463;-81
2023/10/05 09:19:29;;;;;;;6.50;2.80;;;;;;;16.42;62.12;97352.05;112095;1243;22554;-82
2023/10/05 09:24:53;;;;;;;5.50;2.60;;;;;;;16.44;61.78;97350.95;111869;1244;40973;-81
2023/10/05 09:27:26;;;;;;;5.70;2.90;;;;;;;16.43;61.74;97350.86;111887;1244;23840;-81
2023/10/05 09:30:14;;;;;;;5.90;3.00;;;;;;;16.63;62.17;97345.17;111907;1244;22571;-81
2023/10/05 09:32:43;;;;;;;6.00;3.10;;;;;;;16.81;62.19;97348.22;111841;1244;143548;-81
2023/10/05 09:35:27;;;;;;;4.50;2.90;;;;;;;16.97;61.93;97347.65;111914;1244;22491;-82
2023/10/05 09:37:58;;;;;;;4.30;2.40;;;;;;;17.13;61.51;97342.73;111913;1244;22495;-82
2023/10/05 09:40:31;;;;;;;6.50;2.70;;;;;;;17.20;61.37;97346.35;111918;1240;22510;-82
2023/10/05 09:43:06;;;;;;;5.60;2.40;;;;;;;17.30;61.17;97339.09;111867;1244;71870;-82
2023/10/05 09:45:34;;;;;;;7.00;3.30;;;;;;;17.38;61.04;97332.42;111914;1244;24486;-81
2023/10/05 09:48:07;;;;;;;4.80;2.50;;;;;;;17.41;60.83;97329.66;111914;1244;22492;-81
2023/10/05 09:50:40;;;;;;;5.90;3.00;;;;;;;17.31;59.73;97325.45;111916;1240;22495;-82
2023/10/05 09:53:10;;;;;;;4.30;2.80;;;;;;;17.31;60.09;97315.11;111819;1239;90244;-81
2023/10/05 09:55:40;;;;;;;6.00;2.70;;;;;;;17.34;59.53;97317.07;111884;1235;22501;-81
2023/10/05 09:58:12;;;;;;;5.00;2.20;;;;;;;17.20;58.50;97319.23;111894;1244;22536;-81
2023/10/05 10:00:50;;;;;;;4.50;2.70;;;;;;;17.04;57.95;97312.83;111901;1244;22635;-81
2023/10/05 10:03:20;;;;;;;5.20;2.90;;;;;;;17.03;58.24;97311.35;111713;1241;48109;-81
2023/10/05 10:05:59;;;;;;;5.40;2.90;;;;;;;17.02;58.41;97308.80;111901;1244;22571;-81
2023/10/05 10:08:29;;;;;;;4.70;2.10;;;;;;;17.21;59.30;97310.19;111909;1240;23767;-81
2023/10/05 10:11:06;;;;;;;6.00;2.60;;;;;;;17.36;59.06;97306.90;111908;1244;22652;-81
2023/10/05 10:13:37;;;;;;;5.40;2.30;;;;;;;17.53;59.18;97313.45;111859;1244;48473;-81
2023/10/05 10:16:17;;;;;;;4.30;2.20;;;;;;;17.69;59.29;97312.59;111918;1244;22498;-80
2023/10/05 10:18:53;;;;;;;5.50;2.40;;;;;;;17.55;56.91;97302.73;111903;1244;23990;-81
2023/10/05 10:21:32;;;;;;;3.90;2.00;;;;;;;17.46;57.38;97306.42;111939;1244;22499;-80
2023/10/05 10:24:08;;;;;;;4.30;2.10;;;;;;;17.57;56.34;97302.25;111881;1244;48243;-81
2023/10/05 10:26:44;;;;;;;6.60;2.40;;;;;;;17.47;55.68;97297.73;111924;1244;25362;-81
2023/10/05 10:29:16;;;;;;;4.50;1.90;;;;;;;17.44;55.35;97295.50;111918;1244;22504;-81
2023/10/05 10:31:48;;;;;;;3.80;2.10;;;;;;;17.29;54.50;97293.08;111918;1244;22497;-81
2023/10/05 10:34:42;;;;;;;5.00;2.50;;;;;;;17.37;55.13;97284.40;111821;1244;51288;-79
2023/10/05 10:37:36;;;;;;;7.00;2.30;;;;;;;17.37;53.59;97284.45;111904;1244;22490;-81
2023/10/05 10:40:12;;;;;;;2.80;1.60;;;;;;;17.44;53.81;97280.70;111896;1244;22511;-81
2023/10/05 10:42:54;;;;;;;4.20;2.10;;;;;;;17.50;54.27;97276.30;111872;1244;44458;-80
2023/10/05 10:45:28;;;;;;;4.80;2.40;;;;;;;17.55;53.77;97273.02;111940;1244;25248;-81
2023/10/05 10:47:57;;;;;;;4.30;2.30;;;;;;;17.66;53.97;97267.98;111911;1244;22494;-80
2023/10/05 10:50:30;;;;;;;3.40;2.00;;;;;;;17.61;54.00;97271.59;111932;1244;22597;-80
2023/10/05 10:53:00;;;;;;;4.30;2.20;;;;;;;17.54;54.07;97267.46;111857;1237;66917;-81
2023/10/05 10:55:31;;;;;;;4.20;2.20;;;;;;;17.33;53.90;97263.07;111909;1244;22699;-81
2023/10/05 10:58:04;;;;;;;4.30;2.10;;;;;;;17.21;54.23;97264.36;111926;1244;22539;-81
2023/10/05 11:00:54;;;;;;;4.00;1.90;;;;;;;17.15;54.02;97262.41;111934;1244;25248;-81
2023/10/05 11:03:26;;;;;;;5.30;2.30;;;;;;;17.14;54.98;97259.27;111897;1244;26492;-81
2023/10/05 11:05:57;;;;;;;3.30;1.90;;;;;;;17.15;54.53;97251.64;111939;1244;27171;-81
2023/10/05 11:08:30;;;;;;;3.60;2.20;;;;;;;17.06;54.40;97250.57;111942;1244;23690;-81
2023/10/05 11:11:06;;;;;;;3.80;2.10;;;;;;;17.06;55.05;97248.88;111927;1244;22521;-80
2023/10/05 11:13:43;;;;;;;3.50;2.30;;;;;;;17.09;54.54;97248.58;111904;1243;38101;-81
2023/10/05 11:16:15;;;;;;;3.70;2.30;;;;;;;17.21;55.34;97249.16;111905;1244;22515;-82
2023/10/05 11:18:57;;;;;;;3.90;2.00;;;;;;;17.38;55.28;97241.16;111935;1244;22504;-81
2023/10/05 11:21:27;;;;;;;3.40;1.70;;;;;;;17.45;55.14;97239.17;111941;1244;22583;-81
2023/10/05 11:24:06;;;;;;;3.00;1.80;;;;;;;17.43;54.70;97233.71;111888;1244;50677;-81
2023/10/05 11:27:05;;;;;;;3.90;2.10;;;;;;;17.34;54.75;97230.55;111930;1244;22604;-81
2023/10/05 11:29:43;;;;;;;3.60;2.10;;;;;;;17.34;54.90;97228.03;111921;1244;22766;-81
2023/10/05 11:32:13;;;;;;;3.20;2.20;;;;;;;17.41;55.04;97228.22;111950;1244;25524;-81
2023/10/05 11:34:44;;;;;;;3.50;1.70;;;;;;;17.57;55.43;97226.70;111892;1229;33292;-81
2023/10/05 11:37:16;;;;;;;3.90;2.10;;;;;;;17.67;54.93;97221.55;111932;1240;22707;-82
2023/10/05 11:39:49;;;;;;;3.70;2.10;;;;;;;17.77;55.54;97214.93;111924;1244;22526;-82
2023/10/05 11:42:24;;;;;;;3.40;1.70;;;;;;;17.81;54.87;97214.20;111934;1244;22526;-81
2023/10/05 11:44:57;;;;;;;3.90;2.10;;;;;;;17.85;54.74;97209.19;111857;1244;73440;-81
2023/10/05 11:47:32;;;;;;;4.60;2.00;;;;;;;18.02;54.98;97214.80;111898;1244;22501;-81
2023/10/05 11:50:06;;;;;;;3.60;1.80;;;;;;;18.17;54.51;97216.52;111927;1244;22498;-82
2023/10/05 11:52:38;;;;;;;5.40;1.90;;;;;;;18.35;54.46;97216.58;111958;1244;23771;-81
2023/10/05 11:55:11;;;;;;;3.10;1.80;;;;;;;18.49;53.80;97213.33;111982;1244;22552;-81
2023/10/05 11:57:41;;;;;;;3.80;1.80;;;;;;;18.46;53.94;97218.86;111741;1244;22498;-82
2023/10/05 12:00:13;;;;;;;3.60;1.90;;;;;;;18.31;53.38;97212.09;111951;1244;22521;-82
2023/10/05 12:02:43;;;;;;;2.50;1.60;;;;;;;18.08;52.88;97203.42;111936;1244;36822;-82
2023/10/05 12:05:12;;;;;;;4.70;2.60;;;;;;;17.95;52.59;97206.98;111964;1244;26589;-81
2023/10/05 12:07:45;;;;;;;3.10;1.80;;;;;;;17.90;52.27;97201.51;111945;1235;22528;-81
2023/10/05 12:10:18;;;;;;;3.40;1.70;;;;;;;17.75;51.51;97204.54;111908;1244;22562;-81
2023/10/05 12:12:50;;;;;;;4.70;2.10;;;;;;;17.52;50.77;97202.80;111939;1244;51611;-82